Details From LCLK - Larnaca
To LXGB - Gibraltar
Flight Number -
Tags Generated
Created
Modified
Stats Distance 1,909 nm / 3,535 km
Max Altitude 0 ft / 0 m
Waypoints 7
Social Downloads 2
Likes 0
Share VATSIM

Download

Looking for another format? Having issues loading an existing format? Contact us
Advertisement - Login to hide

Notes

Generated

Route

LCLK RESTI BELIX NSY96 BIZ GALTO LXGB

ID Type Via Altitude Latitude Longitude Leg Dist Tot Dist Heading (true) Name
O LCLK APT - 0 ft / 0 m 34.86568˚ 33.61326˚ - 0 nm - -
RESTI FIX - 0 ft / 0 m 36.46778˚ 24.43972˚ 457 nm 457 nm 285° / 279° -
BELIX FIX - 0 ft / 0 m 36.96667˚ 19.00000˚ 263 nm 721 nm 278° / 275° -
NSY96 FIX - 0 ft / 0 m 37.17346˚ 14.70794˚ 206 nm 927 nm 275° / 272° -
BIZ VOR - 0 ft / 0 m 37.23528˚ 9.76556˚ 236 nm 1163 nm 272° / 269° BIZERTE VOR-DME
GALTO FIX - 0 ft / 0 m 35.83333˚ -5.14361˚ 723 nm 1887 nm 268° / 259° -
O LXGB APT - 0 ft / 0 m 36.15080˚ -5.35977˚ 21 nm 1908 nm 331° / 331° -

Altitude Profile

Advertisement - Login to hide

Weather


0- 5 10 15 20 25 30 35+ Temperature / ° C

Clouds and Precipitation
Forecast for 2017-12-18 12:00 UTC. Updated an hour ago

Ground ~20,000 ft ~40,000 ft Winds

LCLK

Details ICAO LCLK (LCA)
Name Larnaca
Region Cyprus
Timezone Asia/Nicosia (UTC+2.0)
Stats Elevation 8 ft / 2 m (AMSL)
Location 34.875115° 33.624832°
Runways 1
Magnetic Variation 4.991° E

METAR

LCLK 180830Z 04004KT 9999 FEW030 SCT050 20/12 Q1020 NOSIG

Decode

TAF

TAF LCLK 180530Z 1806/1906 33006KT 9999 FEW025 BECMG 1808/1812 20010KT BECMG 1816/1820 32006KT

Decode

Departure Runways

ID Width Length Bearing (true) Bearing (mag) Surface Threshold Offset Overrun Length
04 148 ft / 45 m 9,771 ft / 2,978 m 45.15° 40.16° Asphalt 0 ft / 0 m 210 ft / 64 m
22 148 ft / 45 m 9,771 ft / 2,978 m 225.17° 220.18° Asphalt 575 ft / 175 m 0 ft / 0 m

LXGB

Details ICAO LXGB (GIB)
Name Gibraltar
Region Gibralter
Timezone Europe/Gibraltar (UTC+1.0)
Stats Elevation 15 ft / 5 m (AMSL)
Location 36.151209° -5.349664°
Runways 1
Magnetic Variation 1.121° W

METAR

LXGB 180750Z 07018G28KT 9999 BKN025 14/09 Q1029 NOSIG

Decode

TAF

Not found

Destination Runways

ID Width Length Bearing (true) Bearing (mag) Surface Threshold Offset Overrun Length
27 151 ft / 46 m 5,992 ft / 1,826 m 267.56° 268.68° Asphalt 367 ft / 112 m 89 ft / 27 m
9 151 ft / 46 m 5,992 ft / 1,826 m 87.54° 88.66° Asphalt 299 ft / 91 m 52 ft / 16 m